createdAt,value
2022-09-12T00:00:37.106Z,20.90
2022-09-12T00:03:04.503Z,19.57
2022-09-12T00:05:33.057Z,21.83
2022-09-12T00:08:00.461Z,21.58
2022-09-12T00:10:29.510Z,19.92
2022-09-12T00:12:56.871Z,18.25
2022-09-12T00:15:24.199Z,20.63
2022-09-12T00:17:51.578Z,20.52
2022-09-12T00:20:18.994Z,19.60
2022-09-12T00:22:46.324Z,23.83
2022-09-12T00:25:13.731Z,25.05
2022-09-12T00:27:42.435Z,28.70
2022-09-12T00:30:10.003Z,25.67
2022-09-12T00:32:37.357Z,23.95
2022-09-12T00:35:04.904Z,22.88
2022-09-12T00:37:32.604Z,28.60
2022-09-12T00:39:59.975Z,26.60
2022-09-12T00:42:27.439Z,26.58
2022-09-12T00:44:56.123Z,27.15
2022-09-12T00:47:25.861Z,29.63
2022-09-12T00:49:55.788Z,29.83
2022-09-12T00:52:27.747Z,29.20
2022-09-12T00:54:57.400Z,26.63
2022-09-12T00:57:27.795Z,27.52
2022-09-12T00:59:59.263Z,27.25
2022-09-12T01:02:26.780Z,25.85
2022-09-12T01:04:54.131Z,24.80
2022-09-12T01:07:22.238Z,25.20
2022-09-12T01:09:49.852Z,28.05
2022-09-12T01:12:17.678Z,25.60
2022-09-12T01:14:45.103Z,26.05
2022-09-12T01:17:14.957Z,25.60
2022-09-12T01:19:51.247Z,24.08
2022-09-12T01:22:24.723Z,24.88
2022-09-12T01:24:59.312Z,26.25
2022-09-12T01:27:33.959Z,24.88
2022-09-12T01:30:25.220Z,24.63
2022-09-12T01:33:16.637Z,22.45
2022-09-12T01:35:48.902Z,23.65
2022-09-12T01:38:26.478Z,21.75
2022-09-12T01:40:58.283Z,24.20
2022-09-12T01:43:31.988Z,23.40
2022-09-12T01:46:02.362Z,22.75
2022-09-12T01:48:31.151Z,24.98
2022-09-12T01:51:05.323Z,28.40
2022-09-12T01:53:35.691Z,25.73
2022-09-12T01:56:07.453Z,24.27
2022-09-12T01:58:37.134Z,25.48
2022-09-12T02:01:07.721Z,26.77
2022-09-12T02:03:40.429Z,27.30
2022-09-12T02:06:13.802Z,24.63
2022-09-12T02:08:42.995Z,24.67
2022-09-12T02:11:11.769Z,23.38
2022-09-12T02:13:42.132Z,26.10
2022-09-12T02:16:11.327Z,26.70
2022-09-12T02:18:39.614Z,26.90
2022-09-12T02:21:07.190Z,28.03
2022-09-12T02:23:37.949Z,30.55
2022-09-12T02:26:07.680Z,29.98
2022-09-12T02:28:36.529Z,30.13
2022-09-12T02:31:11.788Z,29.25
2022-09-12T02:33:45.933Z,26.67
2022-09-12T02:36:21.880Z,27.73
2022-09-12T02:38:51.082Z,24.45
2022-09-12T02:41:19.603Z,25.48
2022-09-12T02:43:47.484Z,25.58
2022-09-12T02:46:17.594Z,28.83
2022-09-12T02:48:45.053Z,27.55
2022-09-12T02:51:12.971Z,23.55
2022-09-12T02:53:40.504Z,24.17
2022-09-12T02:56:11.778Z,24.95
2022-09-12T02:58:39.287Z,25.60
2022-09-12T03:01:11.495Z,21.65
2022-09-12T03:03:51.119Z,27.90
2022-09-12T03:06:20.948Z,26.17
2022-09-12T03:09:00.233Z,22.40
2022-09-12T03:11:35.064Z,21.60
2022-09-12T03:14:08.557Z,21.58
2022-09-12T03:16:40.878Z,23.13
2022-09-12T03:19:15.049Z,19.90
2022-09-12T03:21:50.146Z,21.42
2022-09-12T03:24:19.516Z,20.73
2022-09-12T03:26:49.698Z,23.65
2022-09-12T03:29:18.722Z,22.45
2022-09-12T03:31:49.971Z,19.58
2022-09-12T03:34:17.691Z,23.05
2022-09-12T03:36:45.048Z,22.03
2022-09-12T03:39:12.372Z,22.30
2022-09-12T03:41:39.741Z,21.00
2022-09-12T03:44:08.443Z,22.42
2022-09-12T03:46:36.544Z,23.65
2022-09-12T03:49:03.934Z,22.37
2022-09-12T03:51:31.299Z,21.58
2022-09-12T03:53:58.639Z,21.00
2022-09-12T03:56:26.111Z,23.85
2022-09-12T03:58:53.475Z,22.73
2022-09-12T04:01:22.607Z,22.93
2022-09-12T04:03:50.609Z,22.70
2022-09-12T04:06:18.994Z,22.17
2022-09-12T04:08:50.415Z,23.33
2022-09-12T04:11:17.971Z,24.52
2022-09-12T04:13:46.161Z,24.43
2022-09-12T04:16:14.315Z,22.50
2022-09-12T04:18:43.290Z,24.45
2022-09-12T04:21:11.859Z,24.58
2022-09-12T04:23:39.448Z,24.02
2022-09-12T04:26:07.534Z,24.17
2022-09-12T04:28:35.911Z,24.65
2022-09-12T04:31:04.764Z,23.42
2022-09-12T04:33:32.458Z,26.08
2022-09-12T04:36:05.463Z,24.10
2022-09-12T04:38:32.950Z,26.70
2022-09-12T04:41:00.678Z,23.95
2022-09-12T04:43:28.059Z,23.05
2022-09-12T04:45:56.392Z,23.70
2022-09-12T04:48:23.757Z,23.60
2022-09-12T04:50:51.100Z,24.37
2022-09-12T04:53:19.749Z,24.95
2022-09-12T04:55:47.117Z,23.63
2022-09-12T04:58:14.466Z,25.15
2022-09-12T05:00:42.168Z,26.88
2022-09-12T05:03:09.509Z,25.57
2022-09-12T05:05:36.965Z,26.15
2022-09-12T05:08:04.348Z,25.70
2022-09-12T05:10:34.611Z,26.25
2022-09-12T05:13:01.951Z,27.85
2022-09-12T05:15:29.283Z,27.77
2022-09-12T05:17:56.609Z,27.00
2022-09-12T05:20:23.962Z,29.52
2022-09-12T05:22:51.292Z,28.67
2022-09-12T05:25:18.608Z,31.20
2022-09-12T05:27:50.455Z,32.37
2022-09-12T05:30:18.054Z,28.63
2022-09-12T05:32:45.818Z,33.30
2022-09-12T05:35:13.181Z,29.48
2022-09-12T05:37:40.529Z,35.45
2022-09-12T05:40:08.534Z,38.70
2022-09-12T05:42:36.784Z,35.95
2022-09-12T05:45:06.000Z,38.10
2022-09-12T05:47:33.357Z,38.33
2022-09-12T05:50:00.708Z,35.67
2022-09-12T05:52:28.055Z,31.93
2022-09-12T05:54:55.457Z,33.83
2022-09-12T05:57:22.793Z,33.38
2022-09-12T05:59:50.705Z,34.42
2022-09-12T06:02:19.410Z,36.30
2022-09-12T06:04:46.836Z,31.30
2022-09-12T06:07:14.520Z,33.78
2022-09-12T06:09:42.227Z,35.80
2022-09-12T06:12:09.590Z,35.90
2022-09-12T06:14:36.908Z,37.83
2022-09-12T06:17:05.092Z,38.43
2022-09-12T06:19:34.129Z,36.28
2022-09-12T06:22:01.559Z,36.53
2022-09-12T06:24:28.891Z,40.60
2022-09-12T06:26:56.316Z,37.63
2022-09-12T06:29:24.004Z,37.23
2022-09-12T06:31:51.345Z,36.83
2022-09-12T06:34:19.487Z,40.97
2022-09-12T06:36:49.158Z,37.45
2022-09-12T06:39:17.381Z,37.33
2022-09-12T06:41:45.049Z,36.87
2022-09-12T06:44:14.115Z,35.40
2022-09-12T06:46:44.129Z,37.28
2022-09-12T06:49:11.514Z,33.25
2022-09-12T06:51:38.888Z,35.55
2022-09-12T06:54:07.611Z,37.60
2022-09-12T06:56:34.927Z,34.42
2022-09-12T06:59:02.271Z,32.78
2022-09-12T07:01:30.935Z,36.25
2022-09-12T07:03:59.208Z,34.70
2022-09-12T07:06:31.537Z,35.47
2022-09-12T07:08:59.302Z,33.88
2022-09-12T07:11:30.535Z,34.42
2022-09-12T07:13:59.143Z,36.20
2022-09-12T07:16:26.614Z,34.92
2022-09-12T07:18:54.869Z,30.27
2022-09-12T07:21:22.614Z,33.17
2022-09-12T07:23:51.726Z,31.17
2022-09-12T07:26:19.307Z,27.02
2022-09-12T07:28:51.462Z,24.27
2022-09-12T07:31:19.459Z,28.20
2022-09-12T07:33:51.192Z,24.48
2022-09-12T07:36:22.359Z,24.88
2022-09-12T07:38:49.883Z,22.63
2022-09-12T07:41:19.317Z,22.10
2022-09-12T07:43:48.110Z,23.20
2022-09-12T07:46:15.706Z,21.92
2022-09-12T07:48:44.407Z,25.45
2022-09-12T07:51:12.389Z,21.13
2022-09-12T07:53:40.844Z,21.20
2022-09-12T07:56:10.226Z,21.10
2022-09-12T07:58:38.431Z,21.42
2022-09-12T08:01:08.790Z,20.40
2022-09-12T08:03:36.278Z,21.35
2022-09-12T08:06:04.305Z,20.42
2022-09-12T08:08:34.229Z,19.23
2022-09-12T08:11:02.175Z,19.17
2022-09-12T08:13:29.875Z,19.40
2022-09-12T08:16:00.758Z,16.10
2022-09-12T08:18:29.903Z,15.68
2022-09-12T08:20:57.716Z,13.63
2022-09-12T08:23:25.405Z,15.98
2022-09-12T08:25:52.792Z,13.27
2022-09-12T08:28:20.095Z,11.23
2022-09-12T08:30:47.647Z,11.00
2022-09-12T08:33:15.224Z,11.37
2022-09-12T08:35:43.969Z,10.00
2022-09-12T08:38:11.372Z,10.18
2022-09-12T08:40:45.286Z,8.52
2022-09-12T08:43:18.540Z,9.93
2022-09-12T08:45:48.424Z,9.90
2022-09-12T08:48:15.899Z,8.45
2022-09-12T08:50:49.342Z,8.38
2022-09-12T08:53:20.236Z,8.23
2022-09-12T08:55:53.447Z,9.32
2022-09-12T08:58:22.555Z,6.73
2022-09-12T09:00:53.924Z,7.82
2022-09-12T09:03:45.177Z,6.75
2022-09-12T09:06:19.993Z,6.63
2022-09-12T09:08:51.334Z,6.30
2022-09-12T09:11:24.562Z,5.67
2022-09-12T09:14:15.982Z,5.57
2022-09-12T09:16:44.632Z,5.55
2022-09-12T09:19:13.254Z,6.15
2022-09-12T09:21:44.463Z,6.72
2022-09-12T09:24:13.728Z,5.63
2022-09-12T09:26:44.206Z,5.57
2022-09-12T09:29:15.583Z,5.00
2022-09-12T09:31:43.385Z,4.72
2022-09-12T09:34:14.164Z,5.35
2022-09-12T09:36:49.397Z,5.10
2022-09-12T09:39:21.941Z,5.15
2022-09-12T09:41:55.914Z,4.78
2022-09-12T09:44:23.463Z,5.25
2022-09-12T09:46:53.434Z,4.78
2022-09-12T09:49:21.053Z,5.13
2022-09-12T09:51:49.940Z,5.15
2022-09-12T09:54:19.557Z,5.15
2022-09-12T09:56:47.072Z,5.82
2022-09-12T09:59:17.095Z,5.25
2022-09-12T10:01:46.209Z,5.00
2022-09-12T10:04:20.942Z,5.40
2022-09-12T10:06:51.743Z,5.57
2022-09-12T10:09:21.040Z,5.00
2022-09-12T10:11:48.721Z,4.72
2022-09-12T10:14:30.386Z,5.37
2022-09-12T10:16:58.712Z,5.22
2022-09-12T10:19:35.016Z,5.93
2022-09-12T10:22:04.708Z,5.90
2022-09-12T10:24:34.415Z,5.88
2022-09-12T10:27:07.607Z,5.33
2022-09-12T10:29:37.339Z,5.75
2022-09-12T10:32:06.519Z,5.68
2022-09-12T10:34:36.325Z,5.00
2022-09-12T10:37:06.563Z,5.15
2022-09-12T10:39:35.966Z,6.37
2022-09-12T10:42:05.167Z,5.10
2022-09-12T10:44:33.282Z,5.18
2022-09-12T10:47:01.400Z,5.85
2022-09-12T10:49:30.330Z,5.65
2022-09-12T10:51:59.565Z,6.57
2022-09-12T10:54:29.407Z,6.80
2022-09-12T10:57:04.900Z,4.70
2022-09-12T10:59:39.134Z,5.55
2022-09-12T11:02:15.640Z,4.75
2022-09-12T11:04:48.393Z,6.30
2022-09-12T11:07:28.455Z,4.03
2022-09-12T11:10:00.371Z,4.57
2022-09-12T11:12:31.309Z,4.47
2022-09-12T11:15:03.956Z,4.90
2022-09-12T11:17:37.986Z,5.90
2022-09-12T11:20:14.542Z,4.72
2022-09-12T11:22:58.628Z,5.05
2022-09-12T11:25:32.112Z,4.40
2022-09-12T11:28:14.264Z,5.05
2022-09-12T11:30:47.875Z,5.03
2022-09-12T11:33:42.694Z,4.70
2022-09-12T11:36:17.563Z,4.43
2022-09-12T11:38:50.591Z,4.88
2022-09-12T11:41:21.399Z,5.80
2022-09-12T11:43:51.688Z,6.00
2022-09-12T11:46:20.521Z,4.47
2022-09-12T11:48:51.047Z,4.57
2022-09-12T11:51:20.153Z,4.85
2022-09-12T11:53:51.974Z,5.13
2022-09-12T11:56:20.956Z,4.87
2022-09-12T11:58:52.613Z,5.20
2022-09-12T12:01:22.427Z,5.40
2022-09-12T12:03:52.415Z,4.63
2022-09-12T12:06:22.236Z,4.90
2022-09-12T12:08:50.429Z,4.10
2022-09-12T12:11:26.968Z,4.90
2022-09-12T12:13:58.171Z,4.30
2022-09-12T12:16:27.036Z,4.65
2022-09-12T12:18:55.685Z,4.97
2022-09-12T12:21:33.258Z,4.40
2022-09-12T12:24:05.182Z,4.70
2022-09-12T12:26:42.738Z,4.65
2022-09-12T12:29:12.646Z,5.45
2022-09-12T12:31:54.898Z,5.38
2022-09-12T12:34:29.136Z,4.90
2022-09-12T12:36:56.900Z,4.25
2022-09-12T12:39:51.240Z,5.90
2022-09-12T12:42:37.162Z,4.97
2022-09-12T12:45:26.001Z,4.40
2022-09-12T12:47:56.188Z,4.23
2022-09-12T12:50:26.370Z,5.30
2022-09-12T12:52:55.806Z,4.80
2022-09-12T12:55:26.309Z,5.75
2022-09-12T12:57:54.714Z,4.97
2022-09-12T13:00:30.990Z,6.83
2022-09-12T13:03:01.451Z,4.65
2022-09-12T13:05:30.187Z,4.80
2022-09-12T13:07:59.160Z,4.32
2022-09-12T13:10:28.845Z,4.25
2022-09-12T13:12:57.018Z,4.73
2022-09-12T13:15:47.489Z,5.20
2022-09-12T13:18:19.603Z,4.55
2022-09-12T13:20:49.692Z,5.25
2022-09-12T13:23:22.367Z,4.40
2022-09-12T13:25:53.625Z,6.67
2022-09-12T13:28:20.980Z,5.40
2022-09-12T13:30:49.956Z,4.75
2022-09-12T13:33:21.700Z,5.85
2022-09-12T13:36:09.759Z,4.35
2022-09-12T13:38:43.539Z,4.37
2022-09-12T13:41:19.421Z,4.20
2022-09-12T13:43:47.748Z,6.03
2022-09-12T13:46:17.199Z,4.45
2022-09-12T13:48:46.037Z,5.40
2022-09-12T13:51:22.240Z,6.70
2022-09-12T13:53:50.619Z,5.18
2022-09-12T13:56:18.674Z,5.80
2022-09-12T13:58:53.963Z,5.20
2022-09-12T14:01:22.351Z,5.93
2022-09-12T14:04:14.980Z,5.83
2022-09-12T14:06:47.142Z,5.22
2022-09-12T14:09:15.051Z,5.47
2022-09-12T14:11:42.674Z,4.72
2022-09-12T14:14:18.939Z,5.30
2022-09-12T14:16:46.264Z,5.97
2022-09-12T14:19:16.221Z,4.80
2022-09-12T14:21:43.625Z,5.88
2022-09-12T14:24:12.396Z,6.28
2022-09-12T14:26:41.094Z,5.85
2022-09-12T14:29:09.139Z,7.07
2022-09-12T14:31:37.800Z,6.50
2022-09-12T14:34:12.754Z,5.07
2022-09-12T14:36:48.739Z,5.97
2022-09-12T14:39:21.773Z,6.43
2022-09-12T14:41:49.859Z,4.90
2022-09-12T14:44:19.089Z,5.88
2022-09-12T14:46:46.553Z,5.28
2022-09-12T14:49:16.611Z,6.22
2022-09-12T14:51:51.244Z,6.47
2022-09-12T14:54:37.187Z,5.93
2022-09-12T14:57:05.564Z,5.97
2022-09-12T14:59:38.322Z,5.63
2022-09-12T15:02:22.948Z,7.10
2022-09-12T15:04:51.039Z,4.95
2022-09-12T15:07:24.151Z,7.03
2022-09-12T15:09:53.024Z,6.72
2022-09-12T15:12:20.387Z,5.60
2022-09-12T15:14:47.691Z,7.50
2022-09-12T15:17:15.467Z,6.55
2022-09-12T15:19:42.825Z,6.57
2022-09-12T15:22:11.125Z,7.05
2022-09-12T15:24:39.855Z,6.50
2022-09-12T15:27:12.294Z,6.47
2022-09-12T15:29:40.008Z,5.57
2022-09-12T15:32:07.979Z,6.20
2022-09-12T15:34:35.344Z,6.47
2022-09-12T15:37:02.717Z,6.45
2022-09-12T15:39:30.051Z,6.35
2022-09-12T15:41:57.400Z,5.95
2022-09-12T15:44:26.122Z,6.33
2022-09-12T15:46:53.458Z,5.75
2022-09-12T15:49:20.771Z,6.03
2022-09-12T15:51:48.169Z,7.10
2022-09-12T15:54:15.929Z,5.50
2022-09-12T15:56:43.876Z,6.30
2022-09-12T15:59:11.197Z,6.18
2022-09-12T16:01:40.100Z,6.10
2022-09-12T16:04:20.000Z,6.45
2022-09-12T16:06:47.320Z,5.22
2022-09-12T16:09:16.850Z,5.83
2022-09-12T16:11:44.984Z,5.70
2022-09-12T16:14:14.380Z,6.00
2022-09-12T16:16:43.250Z,6.30
2022-09-12T16:19:10.783Z,6.95
2022-09-12T16:21:38.560Z,5.20
2022-09-12T16:24:06.128Z,5.20
2022-09-12T16:26:34.197Z,6.28
2022-09-12T16:29:01.854Z,8.88
2022-09-12T16:31:29.923Z,5.10
2022-09-12T16:33:58.636Z,5.77
2022-09-12T16:36:26.199Z,5.40
2022-09-12T16:38:54.402Z,5.95
2022-09-12T16:41:22.666Z,4.97
2022-09-12T16:43:50.203Z,7.60
2022-09-12T16:46:18.876Z,5.77
2022-09-12T16:48:52.118Z,6.28
2022-09-12T16:51:22.361Z,5.60
2022-09-12T16:53:50.130Z,5.80
2022-09-12T16:56:17.519Z,5.25
2022-09-12T16:58:45.255Z,4.93
2022-09-12T17:01:13.912Z,7.40
2022-09-12T17:03:41.702Z,5.22
2022-09-12T17:06:10.824Z,5.75
2022-09-12T17:08:41.211Z,5.28
2022-09-12T17:11:09.648Z,5.30
2022-09-12T17:14:02.789Z,4.93
2022-09-12T17:16:24.853Z,5.53
2022-09-12T17:18:52.399Z,5.22
2022-09-12T17:21:19.775Z,5.00
2022-09-12T17:23:48.568Z,6.27
2022-09-12T17:26:16.156Z,5.75
2022-09-12T17:28:43.793Z,5.57
2022-09-12T17:31:12.645Z,5.53
2022-09-12T17:33:40.429Z,5.50
2022-09-12T17:36:09.187Z,6.15
2022-09-12T17:38:37.928Z,5.87
2022-09-12T17:41:08.267Z,4.78
2022-09-12T17:43:35.850Z,5.43
2022-09-12T17:46:03.412Z,5.68
2022-09-12T17:48:30.855Z,6.30
2022-09-12T17:50:59.198Z,6.50
2022-09-12T17:53:27.610Z,5.93
2022-09-12T17:55:55.000Z,5.28
2022-09-12T17:58:23.701Z,6.38
2022-09-12T18:01:08.584Z,5.22
2022-09-12T18:03:36.087Z,5.60
2022-09-12T18:06:03.453Z,6.22
2022-09-12T18:08:30.856Z,5.50
2022-09-12T18:11:04.722Z,5.30
2022-09-12T18:13:34.008Z,5.97
2022-09-12T18:16:03.905Z,7.10
2022-09-12T18:18:31.543Z,5.50
2022-09-12T18:20:58.915Z,7.82
2022-09-12T18:23:26.891Z,5.47
2022-09-12T18:25:57.876Z,6.68
2022-09-12T18:28:25.227Z,6.50
2022-09-12T18:30:54.201Z,9.18
2022-09-12T18:33:24.052Z,6.28
2022-09-12T18:35:51.912Z,7.05
2022-09-12T18:38:19.218Z,9.15
2022-09-12T18:40:46.706Z,9.57
2022-09-12T18:43:14.262Z,10.10
2022-09-12T18:45:41.606Z,8.50
2022-09-12T18:48:10.939Z,8.77
2022-09-12T18:50:38.324Z,9.43
2022-09-12T18:53:05.747Z,7.73
2022-09-12T18:55:33.113Z,8.88
2022-09-12T18:58:00.437Z,7.55
2022-09-12T19:00:27.803Z,7.53
2022-09-12T19:02:55.212Z,7.50
2022-09-12T19:05:23.894Z,8.63
2022-09-12T19:07:51.251Z,8.13
2022-09-12T19:10:19.569Z,7.80
2022-09-12T19:12:46.914Z,8.52
2022-09-12T19:15:14.240Z,7.03
2022-09-12T19:17:41.583Z,8.60
2022-09-12T19:20:09.259Z,8.52
2022-09-12T19:22:37.952Z,7.55
2022-09-12T19:25:05.626Z,7.88
2022-09-12T19:27:33.080Z,6.97
2022-09-12T19:30:00.449Z,7.53
2022-09-12T19:32:28.123Z,7.68
2022-09-12T19:34:55.471Z,6.60
2022-09-12T19:37:22.865Z,6.93
2022-09-12T19:39:51.715Z,6.22
2022-09-12T19:42:19.068Z,7.83
2022-09-12T19:44:46.406Z,7.20
2022-09-12T19:47:13.732Z,6.65
2022-09-12T19:49:41.072Z,7.30
2022-09-12T19:52:08.818Z,8.95
2022-09-12T19:54:36.144Z,7.10
2022-09-12T19:57:05.058Z,8.00
2022-09-12T19:59:32.436Z,7.97
2022-09-12T20:02:00.006Z,9.00
2022-09-12T20:04:27.419Z,7.57
2022-09-12T20:06:54.736Z,7.47
2022-09-12T20:09:22.077Z,7.93
2022-09-12T20:11:49.443Z,7.82
2022-09-12T20:14:18.148Z,8.32
2022-09-12T20:16:45.878Z,8.00
2022-09-12T20:19:13.225Z,8.30
2022-09-12T20:21:40.659Z,7.20
2022-09-12T20:24:09.184Z,8.85
2022-09-12T20:26:37.019Z,9.00
2022-09-12T20:29:05.215Z,8.77
2022-09-12T20:31:34.279Z,8.17
2022-09-12T20:34:01.954Z,7.95
2022-09-12T20:36:29.376Z,8.80
2022-09-12T20:38:57.781Z,7.72
2022-09-12T20:41:25.941Z,8.80
2022-09-12T20:43:54.090Z,10.97
2022-09-12T20:46:22.482Z,9.05
2022-09-12T20:48:51.673Z,9.07
2022-09-12T20:51:19.280Z,8.90
2022-09-12T20:53:46.701Z,8.43
2022-09-12T20:56:14.921Z,7.80
2022-09-12T20:58:44.406Z,8.52
2022-09-12T21:01:12.845Z,8.05
2022-09-12T21:03:40.439Z,10.57
2022-09-12T21:06:09.864Z,7.60
2022-09-12T21:08:37.628Z,8.67
2022-09-12T21:11:05.254Z,11.00
2022-09-12T21:13:32.719Z,8.98
2022-09-12T21:16:00.537Z,9.68
2022-09-12T21:18:27.963Z,9.30
2022-09-12T21:20:55.820Z,8.97
2022-09-12T21:23:25.764Z,7.97
2022-09-12T21:25:53.115Z,8.60
2022-09-12T21:28:20.627Z,9.63
2022-09-12T21:30:48.701Z,9.57
2022-09-12T21:33:16.164Z,8.43
2022-09-12T21:35:43.649Z,9.85
2022-09-12T21:38:11.082Z,9.88
2022-09-12T21:40:39.788Z,8.70
2022-09-12T21:43:11.851Z,11.07
2022-09-12T21:45:39.990Z,10.37
2022-09-12T21:48:07.541Z,8.98
2022-09-12T21:50:34.888Z,9.95
2022-09-12T21:53:02.290Z,10.50
2022-09-12T21:55:29.606Z,10.50
2022-09-12T21:57:58.267Z,10.60
2022-09-12T22:00:25.623Z,9.60
2022-09-12T22:02:53.666Z,10.13
2022-09-12T22:05:22.222Z,9.75
2022-09-12T22:07:49.573Z,9.25
2022-09-12T22:10:16.907Z,9.30
2022-09-12T22:12:46.488Z,8.68
2022-09-12T22:15:39.430Z,9.20
2022-09-12T22:18:02.702Z,8.82
2022-09-12T22:20:30.091Z,8.88
2022-09-12T22:23:15.306Z,8.67
2022-09-12T22:25:42.662Z,10.82
2022-09-12T22:28:09.974Z,8.45
2022-09-12T22:30:38.792Z,8.45
2022-09-12T22:33:06.216Z,9.70
2022-09-12T22:35:33.572Z,10.73
2022-09-12T22:38:00.880Z,10.45
2022-09-12T22:40:28.212Z,9.75
2022-09-12T22:42:55.540Z,9.68
2022-09-12T22:45:22.862Z,8.05
2022-09-12T22:47:51.551Z,10.20
2022-09-12T22:50:18.987Z,8.30
2022-09-12T22:52:46.609Z,10.57
2022-09-12T22:55:14.060Z,9.63
2022-09-12T22:57:41.407Z,9.25
2022-09-12T23:00:10.421Z,9.20
2022-09-12T23:02:38.222Z,9.48
2022-09-12T23:05:07.451Z,9.07
2022-09-12T23:07:34.785Z,9.45
2022-09-12T23:10:02.120Z,9.82
2022-09-12T23:12:29.509Z,9.47
2022-09-12T23:14:56.839Z,10.27
2022-09-12T23:17:24.172Z,10.10
2022-09-12T23:19:51.609Z,10.27
2022-09-12T23:22:20.327Z,9.88
2022-09-12T23:24:47.671Z,10.57
2022-09-12T23:27:15.383Z,10.48
2022-09-12T23:29:42.756Z,10.02
2022-09-12T23:32:10.439Z,10.50
2022-09-12T23:34:37.757Z,10.77
2022-09-12T23:37:05.151Z,10.60
2022-09-12T23:39:34.075Z,9.73
2022-09-12T23:42:01.431Z,10.57
2022-09-12T23:44:28.872Z,9.73
2022-09-12T23:46:56.348Z,10.02
2022-09-12T23:49:24.159Z,11.47
2022-09-12T23:51:51.516Z,11.02
2022-09-12T23:54:18.835Z,10.85
2022-09-12T23:56:47.799Z,11.55
2022-09-12T23:59:15.157Z,9.45
